createdAt,value
2019-05-25T00:00:18.965Z,12.78
2019-05-25T00:01:18.945Z,12.72
2019-05-25T00:02:18.869Z,12.61
2019-05-25T00:03:18.815Z,12.62
2019-05-25T00:04:18.764Z,12.62
2019-05-25T00:05:18.736Z,12.55
2019-05-25T00:06:18.665Z,12.53
2019-05-25T00:07:18.642Z,12.50
2019-05-25T00:08:18.560Z,12.43
2019-05-25T00:09:18.519Z,12.46
2019-05-25T00:10:18.490Z,12.42
2019-05-25T00:11:18.408Z,12.40
2019-05-25T00:12:18.362Z,12.42
2019-05-25T00:13:18.313Z,12.46
2019-05-25T00:14:18.257Z,12.46
2019-05-25T00:15:18.236Z,12.42
2019-05-25T00:16:18.154Z,12.36
2019-05-25T00:17:18.106Z,12.39
2019-05-25T00:18:18.068Z,12.37
2019-05-25T00:19:18.008Z,12.39
2019-05-25T00:20:17.987Z,12.40
2019-05-25T00:21:17.903Z,12.42
2019-05-25T00:22:17.855Z,12.36
2019-05-25T00:23:17.826Z,12.36
2019-05-25T00:24:17.750Z,12.36
2019-05-25T00:25:17.699Z,12.35
2019-05-25T00:26:17.689Z,12.35
2019-05-25T00:27:17.600Z,12.21
2019-05-25T00:28:17.584Z,12.32
2019-05-25T00:29:17.498Z,12.32
2019-05-25T00:30:17.474Z,12.36
2019-05-25T00:31:17.403Z,12.32
2019-05-25T00:32:17.347Z,12.32
2019-05-25T00:33:17.298Z,12.45
2019-05-25T00:34:17.272Z,12.39
2019-05-25T00:35:17.195Z,12.37
2019-05-25T00:36:17.149Z,12.32
2019-05-25T00:37:17.146Z,12.37
2019-05-25T00:38:17.074Z,12.39
2019-05-25T00:39:16.990Z,12.36
2019-05-25T00:40:16.969Z,12.40
2019-05-25T00:41:16.890Z,12.37
2019-05-25T00:42:16.839Z,12.40
2019-05-25T00:43:16.785Z,12.37
2019-05-25T00:44:16.735Z,12.46
2019-05-25T00:45:16.717Z,12.39
2019-05-25T00:46:16.632Z,12.39
2019-05-25T00:47:16.585Z,12.39
2019-05-25T00:48:16.532Z,12.45
2019-05-25T00:49:16.479Z,12.47
2019-05-25T00:50:16.464Z,12.45
2019-05-25T00:51:16.378Z,12.46
2019-05-25T00:52:16.330Z,12.45
2019-05-25T00:53:16.320Z,12.42
2019-05-25T00:54:27.411Z,12.42
2019-05-25T00:55:16.194Z,12.31
2019-05-25T00:56:16.125Z,12.28
2019-05-25T00:57:16.074Z,12.24
2019-05-25T00:58:16.059Z,12.27
2019-05-25T00:59:15.973Z,12.24
2019-05-25T01:00:15.925Z,12.28
2019-05-25T01:01:15.874Z,12.35
2019-05-25T01:02:15.822Z,12.32
2019-05-25T01:03:15.809Z,12.36
2019-05-25T01:04:15.717Z,12.31
2019-05-25T01:05:15.668Z,12.37
2019-05-25T01:06:15.618Z,12.29
2019-05-25T01:07:15.564Z,12.27
2019-05-25T01:08:15.562Z,12.28
2019-05-25T01:09:15.463Z,12.21
2019-05-25T01:10:15.412Z,12.20
2019-05-25T01:11:15.361Z,12.18
2019-05-25T01:12:15.313Z,12.15
2019-05-25T01:13:15.290Z,12.18
2019-05-25T01:14:15.206Z,12.04
2019-05-25T01:15:15.180Z,12.04
2019-05-25T01:16:15.106Z,12.00
2019-05-25T01:17:15.054Z,12.04
2019-05-25T01:18:15.006Z,12.09
2019-05-25T01:19:14.952Z,12.09
2019-05-25T01:20:14.933Z,12.03
2019-05-25T01:21:14.865Z,12.04
2019-05-25T01:22:14.812Z,12.02
2019-05-25T01:23:14.748Z,11.91
2019-05-25T01:24:14.731Z,11.90
2019-05-25T01:25:14.705Z,11.84
2019-05-25T01:26:14.627Z,11.87
2019-05-25T01:27:14.546Z,11.94
2019-05-25T01:28:14.527Z,11.94
2019-05-25T01:29:14.448Z,11.95
2019-05-25T01:30:14.390Z,11.94
2019-05-25T01:31:14.377Z,11.94
2019-05-25T01:32:14.290Z,11.94
2019-05-25T01:33:14.267Z,11.95
2019-05-25T01:34:14.188Z,11.97
2019-05-25T01:35:14.133Z,11.94
2019-05-25T01:36:14.115Z,11.94
2019-05-25T01:37:14.035Z,11.91
2019-05-25T01:38:13.983Z,11.94
2019-05-25T01:39:13.930Z,11.88
2019-05-25T01:40:13.882Z,11.81
2019-05-25T01:41:13.860Z,11.75
2019-05-25T01:42:13.777Z,11.88
2019-05-25T01:43:13.725Z,11.72
2019-05-25T01:44:13.676Z,11.77
2019-05-25T01:45:13.625Z,11.70
2019-05-25T01:46:13.604Z,11.78
2019-05-25T01:47:13.523Z,11.70
2019-05-25T01:48:13.467Z,11.70
2019-05-25T01:49:13.418Z,11.70
2019-05-25T01:50:13.365Z,11.72
2019-05-25T01:51:13.340Z,11.70
2019-05-25T01:52:13.263Z,11.66
2019-05-25T01:53:13.216Z,11.69
2019-05-25T01:54:13.190Z,11.70
2019-05-25T01:55:13.111Z,11.68
2019-05-25T01:56:13.059Z,11.65
2019-05-25T01:57:13.008Z,11.57
2019-05-25T01:58:12.989Z,11.55
2019-05-25T01:59:12.905Z,11.69
2019-05-25T02:00:12.857Z,11.65
2019-05-25T02:01:12.805Z,11.68
2019-05-25T02:02:12.752Z,11.77
2019-05-25T02:03:12.730Z,11.70
2019-05-25T02:04:12.650Z,11.80
2019-05-25T02:05:12.596Z,11.73
2019-05-25T02:06:12.544Z,11.81
2019-05-25T02:07:12.491Z,11.83
2019-05-25T02:08:12.480Z,11.81
2019-05-25T02:09:12.391Z,11.81
2019-05-25T02:10:12.339Z,11.81
2019-05-25T02:11:12.290Z,11.84
2019-05-25T02:12:12.237Z,11.88
2019-05-25T02:13:12.221Z,11.88
2019-05-25T02:14:12.135Z,11.86
2019-05-25T02:15:12.082Z,11.94
2019-05-25T02:16:12.033Z,11.95
2019-05-25T02:17:11.982Z,11.88
2019-05-25T02:18:11.958Z,11.86
2019-05-25T02:19:11.875Z,11.87
2019-05-25T02:20:11.822Z,11.81
2019-05-25T02:21:11.772Z,11.88
2019-05-25T02:22:11.722Z,11.78
2019-05-25T02:23:11.696Z,11.81
2019-05-25T02:24:11.627Z,11.78
2019-05-25T02:25:18.239Z,11.87
2019-05-25T02:26:11.571Z,11.80
2019-05-25T02:27:11.465Z,11.88
2019-05-25T02:28:11.447Z,11.90
2019-05-25T02:29:11.421Z,11.90
2019-05-25T02:30:11.309Z,11.88
2019-05-25T02:31:11.259Z,11.95
2019-05-25T02:32:11.213Z,11.88
2019-05-25T02:33:11.179Z,11.87
2019-05-25T02:34:11.142Z,11.84
2019-05-25T02:35:11.053Z,11.78
2019-05-25T02:36:11.004Z,11.78
2019-05-25T02:37:10.950Z,11.69
2019-05-25T02:38:10.938Z,11.69
2019-05-25T02:39:10.848Z,11.63
2019-05-25T02:40:10.799Z,11.52
2019-05-25T02:41:10.759Z,11.63
2019-05-25T02:42:10.689Z,11.62
2019-05-25T02:43:10.683Z,11.60
2019-05-25T02:44:10.589Z,11.59
2019-05-25T02:45:10.536Z,11.59
2019-05-25T02:46:10.490Z,11.65
2019-05-25T02:47:10.436Z,11.66
2019-05-25T02:48:10.412Z,11.70
2019-05-25T02:49:10.331Z,11.80
2019-05-25T02:50:10.277Z,11.83
2019-05-25T02:51:10.228Z,11.78
2019-05-25T02:52:10.184Z,11.81
2019-05-25T02:53:10.156Z,11.81
2019-05-25T02:54:10.075Z,11.90
2019-05-25T02:55:10.020Z,11.84
2019-05-25T02:56:09.969Z,11.91
2019-05-25T02:57:09.919Z,11.91
2019-05-25T02:58:09.913Z,11.88
2019-05-25T02:59:09.813Z,11.94
2019-05-25T03:00:09.764Z,11.90
2019-05-25T03:01:09.714Z,11.95
2019-05-25T03:02:09.690Z,11.90
2019-05-25T03:03:09.612Z,11.91
2019-05-25T03:04:09.555Z,11.91
2019-05-25T03:05:09.505Z,11.88
2019-05-25T03:06:09.573Z,11.94
2019-05-25T03:07:09.401Z,11.90
2019-05-25T03:08:09.353Z,11.88
2019-05-25T03:09:09.300Z,11.87
2019-05-25T03:10:09.250Z,11.86
2019-05-25T03:11:09.227Z,11.87
2019-05-25T03:12:09.177Z,12.00
2019-05-25T03:13:09.099Z,11.94
2019-05-25T03:14:09.041Z,11.94
2019-05-25T03:15:08.992Z,11.90
2019-05-25T03:16:08.937Z,11.95
2019-05-25T03:17:08.932Z,11.90
2019-05-25T03:18:08.841Z,11.88
2019-05-25T03:19:08.796Z,12.00
2019-05-25T03:20:08.733Z,11.97
2019-05-25T03:21:08.683Z,12.00
2019-05-25T03:22:08.660Z,12.07
2019-05-25T03:23:08.575Z,12.07
2019-05-25T03:24:08.528Z,12.07
2019-05-25T03:25:08.477Z,12.00
2019-05-25T03:26:08.422Z,12.04
2019-05-25T03:27:08.403Z,12.04
2019-05-25T03:28:08.321Z,11.94
2019-05-25T03:29:08.272Z,12.03
2019-05-25T03:30:08.216Z,11.88
2019-05-25T03:31:08.196Z,11.97
2019-05-25T03:32:08.147Z,11.88
2019-05-25T03:33:08.066Z,11.97
2019-05-25T03:34:08.018Z,11.97
2019-05-25T03:35:07.961Z,11.94
2019-05-25T03:36:07.947Z,12.02
2019-05-25T03:37:07.899Z,11.94
2019-05-25T03:38:07.803Z,11.90
2019-05-25T03:39:07.754Z,11.87
2019-05-25T03:40:07.700Z,11.91
2019-05-25T03:41:07.647Z,11.94
2019-05-25T03:42:07.630Z,11.94
2019-05-25T03:43:07.548Z,11.91
2019-05-25T03:44:07.500Z,11.97
2019-05-25T03:45:07.443Z,11.97
2019-05-25T03:46:07.398Z,12.02
2019-05-25T03:47:07.374Z,12.03
2019-05-25T03:48:07.290Z,12.04
2019-05-25T03:49:07.240Z,12.10
2019-05-25T03:50:07.185Z,12.06
2019-05-25T03:51:07.134Z,12.13
2019-05-25T03:52:07.116Z,12.13
2019-05-25T03:53:07.031Z,12.10
2019-05-25T03:54:06.981Z,12.13
2019-05-25T03:55:06.928Z,12.15
2019-05-25T03:56:06.876Z,12.15
2019-05-25T03:57:06.858Z,12.10
2019-05-25T03:58:06.771Z,12.13
2019-05-25T03:59:06.718Z,12.18
2019-05-25T04:00:06.669Z,12.07
2019-05-25T04:01:06.650Z,12.17
2019-05-25T04:02:06.567Z,12.13
2019-05-25T04:03:06.519Z,12.13
2019-05-25T04:04:06.464Z,12.18
2019-05-25T04:05:06.411Z,12.13
2019-05-25T04:06:06.405Z,12.18
2019-05-25T04:07:06.310Z,12.18
2019-05-25T04:08:06.259Z,12.15
2019-05-25T04:09:06.205Z,12.18
2019-05-25T04:10:06.154Z,12.25
2019-05-25T04:11:06.136Z,12.22
2019-05-25T04:12:06.051Z,12.21
2019-05-25T04:13:06.000Z,12.27
2019-05-25T04:14:05.953Z,12.21
2019-05-25T04:15:05.930Z,12.24
2019-05-25T04:16:05.866Z,12.25
2019-05-25T04:17:05.798Z,12.27
2019-05-25T04:18:05.742Z,12.22
2019-05-25T04:19:05.689Z,12.21
2019-05-25T04:20:05.680Z,12.17
2019-05-25T04:21:05.602Z,12.28
2019-05-25T04:22:05.534Z,12.25
2019-05-25T04:23:05.483Z,12.17
2019-05-25T04:24:05.432Z,12.22
2019-05-25T04:25:05.492Z,12.21
2019-05-25T04:26:19.628Z,12.32
2019-05-25T04:27:05.278Z,12.25
2019-05-25T04:28:05.227Z,12.25
2019-05-25T04:29:05.181Z,12.25
2019-05-25T04:30:05.155Z,12.28
2019-05-25T04:31:05.073Z,12.25
2019-05-25T04:32:05.032Z,12.20
2019-05-25T04:33:04.983Z,12.35
2019-05-25T04:34:04.918Z,12.35
2019-05-25T04:35:04.901Z,12.28
2019-05-25T04:36:04.815Z,12.22
2019-05-25T04:37:04.764Z,12.35
2019-05-25T04:38:04.712Z,12.28
2019-05-25T04:39:04.660Z,12.29
2019-05-25T04:40:04.646Z,12.25
2019-05-25T04:41:04.625Z,12.31
2019-05-25T04:42:04.513Z,12.40
2019-05-25T04:43:04.454Z,12.28
2019-05-25T04:44:04.403Z,12.39
2019-05-25T04:45:04.401Z,12.37
2019-05-25T04:46:04.299Z,12.35
2019-05-25T04:47:04.287Z,12.40
2019-05-25T04:48:04.198Z,12.32
2019-05-25T04:49:04.148Z,12.36
2019-05-25T04:50:04.127Z,12.36
2019-05-25T04:51:04.074Z,12.39
2019-05-25T04:52:03.993Z,12.40
2019-05-25T04:53:03.941Z,12.39
2019-05-25T04:54:03.943Z,12.43
2019-05-25T04:55:03.840Z,12.39
2019-05-25T04:56:03.815Z,12.37
2019-05-25T04:57:04.242Z,12.46
2019-05-25T04:58:03.683Z,12.39
2019-05-25T04:59:03.652Z,12.45
2019-05-25T05:00:03.579Z,12.49
2019-05-25T05:01:03.554Z,12.40
2019-05-25T05:02:03.532Z,12.47
2019-05-25T05:03:03.430Z,12.39
2019-05-25T05:04:03.385Z,12.43
2019-05-25T05:05:03.354Z,12.53
2019-05-25T05:06:03.274Z,12.49
2019-05-25T05:07:03.239Z,12.47
2019-05-25T05:08:03.169Z,12.43
2019-05-25T05:09:03.122Z,12.54
2019-05-25T05:10:03.519Z,12.45
2019-05-25T05:11:03.014Z,12.53
2019-05-25T05:12:02.997Z,12.50
2019-05-25T05:13:02.917Z,12.53
2019-05-25T05:14:02.863Z,12.50
2019-05-25T05:15:02.854Z,12.64
2019-05-25T05:16:02.759Z,12.62
2019-05-25T05:17:02.709Z,12.67
2019-05-25T05:18:02.656Z,12.62
2019-05-25T05:19:02.607Z,12.61
2019-05-25T05:20:02.591Z,12.64
2019-05-25T05:21:02.501Z,12.65
2019-05-25T05:22:05.147Z,12.65
2019-05-25T05:23:02.400Z,12.73
2019-05-25T05:24:02.350Z,12.67
2019-05-25T05:25:02.299Z,12.79
2019-05-25T05:26:02.245Z,12.82
2019-05-25T05:27:02.234Z,12.78
2019-05-25T05:28:02.143Z,12.83
2019-05-25T05:29:02.095Z,12.93
2019-05-25T05:30:02.044Z,12.86
2019-05-25T05:31:01.994Z,12.83
2019-05-25T05:32:01.965Z,12.98
2019-05-25T05:33:01.889Z,13.09
2019-05-25T05:34:01.840Z,13.04
2019-05-25T05:35:01.823Z,13.13
2019-05-25T05:36:01.738Z,13.23
2019-05-25T05:37:01.749Z,13.25
2019-05-25T05:38:01.640Z,13.33
2019-05-25T05:39:01.617Z,13.31
2019-05-25T05:40:01.573Z,13.46
2019-05-25T05:41:01.480Z,13.47
2019-05-25T05:42:01.462Z,13.50
2019-05-25T05:43:01.410Z,13.47
2019-05-25T05:44:01.363Z,13.57
2019-05-25T05:45:01.281Z,13.57
2019-05-25T05:46:01.227Z,13.70
2019-05-25T05:47:01.177Z,13.74
2019-05-25T05:48:01.219Z,13.79
2019-05-25T05:49:01.119Z,13.86
2019-05-25T05:50:01.033Z,13.81
2019-05-25T05:51:00.981Z,13.86
2019-05-25T05:52:00.923Z,13.90
2019-05-25T05:53:00.874Z,14.00
2019-05-25T05:54:00.864Z,14.04
2019-05-25T05:55:00.770Z,14.00
2019-05-25T05:56:00.719Z,14.12
2019-05-25T05:57:11.781Z,14.14
2019-05-25T05:58:00.624Z,14.14
2019-05-25T05:59:00.616Z,14.26
2019-05-25T06:00:00.519Z,14.26
2019-05-25T06:01:00.475Z,14.32
2019-05-25T06:02:00.415Z,14.32
2019-05-25T06:03:00.370Z,14.36
2019-05-25T06:04:00.370Z,14.32
2019-05-25T06:05:00.265Z,14.43
2019-05-25T06:06:00.216Z,14.37
2019-05-25T06:07:00.168Z,14.36
2019-05-25T06:08:00.118Z,14.43
2019-05-25T06:09:00.109Z,14.44
2019-05-25T06:10:00.049Z,14.44
2019-05-25T06:10:59.967Z,14.50
2019-05-25T06:11:59.919Z,14.47
2019-05-25T06:12:59.868Z,14.47
2019-05-25T06:13:59.851Z,14.55
2019-05-25T06:14:59.772Z,14.51
2019-05-25T06:15:59.715Z,14.44
2019-05-25T06:16:59.666Z,14.62
2019-05-25T06:17:59.616Z,14.62
2019-05-25T06:18:59.595Z,14.58
2019-05-25T06:19:59.546Z,14.68
2019-05-25T06:20:59.463Z,14.63
2019-05-25T06:21:59.416Z,14.69
2019-05-25T06:22:59.374Z,14.65
2019-05-25T06:23:59.326Z,14.65
2019-05-25T06:24:59.302Z,14.73
2019-05-25T06:25:59.214Z,14.81
2019-05-25T06:26:59.164Z,14.78
2019-05-25T06:27:59.114Z,14.89
2019-05-25T06:28:59.067Z,14.88
2019-05-25T06:29:59.045Z,14.86
2019-05-25T06:30:58.974Z,14.94
2019-05-25T06:31:58.918Z,15.03
2019-05-25T06:32:58.899Z,15.04
2019-05-25T06:33:58.823Z,15.04
2019-05-25T06:34:58.800Z,15.17
2019-05-25T06:35:58.717Z,15.24
2019-05-25T06:36:58.668Z,15.37
2019-05-25T06:37:58.630Z,15.42
2019-05-25T06:38:58.570Z,15.57
2019-05-25T06:39:58.553Z,15.55
2019-05-25T06:40:58.472Z,15.72
2019-05-25T06:41:58.419Z,15.65
2019-05-25T06:42:58.371Z,15.72
2019-05-25T06:43:58.326Z,15.76
2019-05-25T06:44:58.333Z,15.75
2019-05-25T06:45:58.223Z,15.83
2019-05-25T06:46:58.172Z,15.86
2019-05-25T06:47:58.126Z,15.94
2019-05-25T06:48:58.075Z,15.94
2019-05-25T06:49:58.059Z,16.09
2019-05-25T06:50:58.013Z,16.04
2019-05-25T06:51:57.933Z,16.15
2019-05-25T06:52:58.278Z,16.08
2019-05-25T06:53:57.830Z,16.28
2019-05-25T06:54:57.783Z,16.29
2019-05-25T06:55:57.806Z,16.31
2019-05-25T06:56:57.687Z,16.41
2019-05-25T06:57:57.636Z,16.35
2019-05-25T06:58:57.586Z,16.43
2019-05-25T06:59:57.546Z,16.51
2019-05-25T07:00:57.519Z,16.56
2019-05-25T07:01:57.441Z,16.56
2019-05-25T07:02:57.431Z,16.54
2019-05-25T07:03:57.345Z,16.54
2019-05-25T07:04:57.360Z,16.50
2019-05-25T07:05:57.245Z,16.49
2019-05-25T07:06:57.261Z,16.47
2019-05-25T07:07:57.179Z,16.35
2019-05-25T07:08:57.100Z,16.39
2019-05-25T07:09:57.058Z,16.35
2019-05-25T07:10:57.003Z,16.35
2019-05-25T07:11:56.965Z,16.39
2019-05-25T07:12:56.942Z,16.35
2019-05-25T07:13:56.857Z,16.46
2019-05-25T07:14:56.810Z,16.39
2019-05-25T07:15:56.761Z,16.38
2019-05-25T07:16:56.784Z,16.47
2019-05-25T07:17:56.714Z,16.36
2019-05-25T07:18:56.621Z,16.46
2019-05-25T07:19:56.627Z,16.47
2019-05-25T07:20:56.518Z,16.51
2019-05-25T07:21:56.468Z,16.57
2019-05-25T07:22:56.454Z,16.56
2019-05-25T07:23:56.372Z,16.54
2019-05-25T07:24:56.357Z,16.64
2019-05-25T07:25:56.275Z,16.68
2019-05-25T07:26:56.230Z,16.64
2019-05-25T07:28:00.035Z,16.68
2019-05-25T07:28:56.132Z,16.79
2019-05-25T07:29:56.116Z,16.89
2019-05-25T07:30:56.038Z,16.90
2019-05-25T07:31:55.988Z,16.99
2019-05-25T07:32:55.984Z,17.04
2019-05-25T07:33:55.894Z,17.05
2019-05-25T07:34:55.845Z,17.02
2019-05-25T07:35:55.798Z,17.05
2019-05-25T07:36:55.750Z,17.02
2019-05-25T07:37:55.744Z,17.06
2019-05-25T07:38:55.657Z,17.14
2019-05-25T07:39:55.638Z,17.16
2019-05-25T07:40:55.561Z,17.15
2019-05-25T07:41:55.511Z,17.20
2019-05-25T07:42:55.494Z,17.29
2019-05-25T07:43:55.421Z,17.39
2019-05-25T07:44:55.396Z,17.41
2019-05-25T07:45:55.326Z,17.44
2019-05-25T07:46:56.971Z,17.52
2019-05-25T07:47:55.254Z,17.59
2019-05-25T07:48:55.179Z,17.63
2019-05-25T07:49:55.132Z,17.74
2019-05-25T07:50:55.080Z,17.74
2019-05-25T07:51:55.035Z,17.78
2019-05-25T07:52:55.025Z,17.80
2019-05-25T07:53:54.938Z,17.87
2019-05-25T07:54:54.923Z,17.86
2019-05-25T07:55:54.843Z,18.04
2019-05-25T07:56:54.798Z,18.04
2019-05-25T07:57:54.752Z,18.07
2019-05-25T07:58:54.706Z,18.20
2019-05-25T07:59:54.705Z,18.23
2019-05-25T08:00:54.611Z,18.23
2019-05-25T08:01:54.562Z,18.29
2019-05-25T08:02:54.516Z,18.41
2019-05-25T08:03:54.470Z,18.52
2019-05-25T08:04:54.456Z,18.50
2019-05-25T08:05:54.377Z,18.63
2019-05-25T08:06:54.417Z,18.65
2019-05-25T08:07:54.288Z,18.63
2019-05-25T08:08:54.262Z,18.59
2019-05-25T08:09:54.188Z,18.63
2019-05-25T08:10:54.142Z,18.65
2019-05-25T08:11:54.099Z,18.73
2019-05-25T08:12:54.058Z,18.83
2019-05-25T08:13:54.048Z,18.89
2019-05-25T08:14:53.960Z,18.98
2019-05-25T08:15:53.914Z,19.02
2019-05-25T08:16:53.865Z,18.99
2019-05-25T08:17:53.827Z,19.14
2019-05-25T08:18:53.798Z,19.16
2019-05-25T08:19:53.727Z,19.11
2019-05-25T08:20:53.681Z,19.21
2019-05-25T08:21:53.636Z,19.26
2019-05-25T08:22:53.616Z,19.33
2019-05-25T08:23:53.542Z,19.36
2019-05-25T08:24:53.495Z,19.48
2019-05-25T08:25:53.448Z,19.64
2019-05-25T08:26:53.406Z,19.63
2019-05-25T08:27:53.404Z,19.81
2019-05-25T08:28:53.313Z,19.85
2019-05-25T08:29:53.269Z,19.94
2019-05-25T08:30:53.269Z,20.10
2019-05-25T08:31:53.173Z,20.22
2019-05-25T08:32:53.130Z,20.37
2019-05-25T08:33:53.117Z,20.55
2019-05-25T08:34:53.044Z,20.72
2019-05-25T08:35:53.028Z,20.80
2019-05-25T08:36:52.954Z,20.96
2019-05-25T08:37:52.901Z,21.15
2019-05-25T08:38:54.909Z,21.22
2019-05-25T08:39:52.848Z,21.33
2019-05-25T08:40:52.800Z,21.54
2019-05-25T08:41:52.723Z,21.58
2019-05-25T08:42:52.708Z,21.72
2019-05-25T08:43:52.635Z,21.82
2019-05-25T08:44:52.592Z,22.02
2019-05-25T08:45:52.546Z,22.08
2019-05-25T08:46:55.384Z,22.29
2019-05-25T08:47:52.487Z,22.39
2019-05-25T08:48:52.412Z,22.55
2019-05-25T08:49:52.364Z,22.68
2019-05-25T08:50:52.322Z,22.63
2019-05-25T08:51:54.928Z,22.83
2019-05-25T08:52:52.309Z,22.91
2019-05-25T08:53:52.187Z,23.00
2019-05-25T08:54:52.172Z,23.10
2019-05-25T08:55:52.099Z,23.27
2019-05-25T08:56:52.061Z,23.31
2019-05-25T08:57:52.045Z,23.44
2019-05-25T08:58:55.375Z,23.50
2019-05-25T08:59:51.957Z,23.62
2019-05-25T09:00:51.887Z,23.69
2019-05-25T09:01:51.840Z,23.78
2019-05-25T09:02:51.794Z,23.81
2019-05-25T09:03:51.755Z,23.93
2019-05-25T09:04:51.743Z,24.11
2019-05-25T09:05:51.699Z,24.28
2019-05-25T09:06:51.627Z,24.30
2019-05-25T09:07:51.582Z,24.51
2019-05-25T09:08:51.539Z,24.63
2019-05-25T09:09:51.509Z,24.78
2019-05-25T09:10:51.490Z,24.86
2019-05-25T09:11:51.410Z,24.81
2019-05-25T09:12:51.369Z,24.85
2019-05-25T09:13:51.339Z,24.85
2019-05-25T09:14:51.284Z,24.89
2019-05-25T09:15:51.268Z,24.85
2019-05-25T09:16:51.286Z,24.86
2019-05-25T09:17:51.335Z,24.93
2019-05-25T09:18:51.120Z,24.98
2019-05-25T09:19:51.358Z,24.81
2019-05-25T09:20:51.033Z,24.80
2019-05-25T09:22:02.198Z,24.54
2019-05-25T09:22:50.946Z,24.69
2019-05-25T09:23:50.940Z,24.80
2019-05-25T09:24:50.861Z,24.70
2019-05-25T09:25:50.822Z,24.80
2019-05-25T09:26:50.816Z,25.01
2019-05-25T09:27:50.740Z,25.06
2019-05-25T09:29:03.501Z,25.29
2019-05-25T09:29:50.661Z,25.25
2019-05-25T09:30:50.644Z,25.33
2019-05-25T09:31:50.611Z,25.50
2019-05-25T09:32:50.620Z,25.62
2019-05-25T09:33:50.525Z,25.72
2019-05-25T09:34:50.455Z,25.69
2019-05-25T09:35:50.416Z,25.69
2019-05-25T09:36:50.370Z,25.66
2019-05-25T09:37:50.326Z,25.68
2019-05-25T09:38:50.317Z,25.68
2019-05-25T09:39:50.247Z,25.65
2019-05-25T09:40:50.237Z,25.65
2019-05-25T09:41:50.163Z,25.60
2019-05-25T09:42:50.149Z,25.41
2019-05-25T09:43:50.081Z,25.35
2019-05-25T09:44:50.039Z,25.44
2019-05-25T09:45:50.046Z,25.18
2019-05-25T09:46:49.958Z,25.23
2019-05-25T09:47:49.918Z,25.28
2019-05-25T09:48:49.881Z,25.08
2019-05-25T09:49:49.844Z,24.86
2019-05-25T09:50:49.831Z,24.54
2019-05-25T09:51:49.766Z,24.48
2019-05-25T09:52:49.811Z,24.32
2019-05-25T09:53:49.684Z,24.29
2019-05-25T09:54:51.681Z,24.32
2019-05-25T09:55:49.596Z,24.51
2019-05-25T09:56:49.556Z,24.57
2019-05-25T09:57:49.547Z,24.53
2019-05-25T09:58:49.475Z,24.35
2019-05-25T09:59:49.429Z,24.26
2019-05-25T10:00:49.389Z,24.18
2019-05-25T10:01:49.357Z,24.14
2019-05-25T10:02:49.445Z,24.32
2019-05-25T10:03:49.269Z,24.47
2019-05-25T10:04:49.227Z,24.65
2019-05-25T10:05:49.187Z,24.69
2019-05-25T10:06:49.147Z,24.86
2019-05-25T10:07:49.146Z,25.01
2019-05-25T10:08:49.063Z,24.95
2019-05-25T10:09:49.021Z,25.18
2019-05-25T10:10:48.981Z,25.38
2019-05-25T10:11:48.973Z,25.51
2019-05-25T10:12:48.904Z,25.63
2019-05-25T10:13:48.870Z,25.80
2019-05-25T10:14:48.850Z,25.98
2019-05-25T10:15:48.779Z,26.09
2019-05-25T10:16:48.737Z,26.13
2019-05-25T10:17:48.698Z,26.28
2019-05-25T10:18:48.658Z,26.37
2019-05-25T10:19:48.647Z,26.55
2019-05-25T10:20:48.578Z,26.60
2019-05-25T10:21:48.546Z,26.75
2019-05-25T10:22:48.528Z,26.84
2019-05-25T10:23:48.455Z,26.43
2019-05-25T10:24:48.419Z,26.40
2019-05-25T10:25:48.379Z,26.44
2019-05-25T10:26:48.334Z,26.52
2019-05-25T10:27:48.331Z,26.53
2019-05-25T10:28:48.257Z,26.62
2019-05-25T10:29:48.217Z,26.75
2019-05-25T10:30:48.176Z,27.02
2019-05-25T10:31:48.141Z,27.11
2019-05-25T10:32:48.139Z,27.20
2019-05-25T10:33:48.123Z,27.17
2019-05-25T10:34:48.018Z,27.27
2019-05-25T10:35:47.978Z,27.39
2019-05-25T10:36:47.970Z,27.44
2019-05-25T10:37:47.905Z,27.47
2019-05-25T10:38:47.858Z,27.52
2019-05-25T10:39:47.818Z,27.58
2019-05-25T10:40:47.782Z,27.59
2019-05-25T10:41:47.779Z,27.65
2019-05-25T10:42:47.705Z,27.67
2019-05-25T10:43:47.685Z,27.93
2019-05-25T10:44:47.622Z,27.93
2019-05-25T10:45:47.582Z,27.89
2019-05-25T10:46:47.544Z,27.80
2019-05-25T10:47:47.536Z,27.86
2019-05-25T10:48:47.469Z,27.78
2019-05-25T10:49:47.458Z,27.59
2019-05-25T10:50:47.387Z,27.36
2019-05-25T10:51:47.381Z,27.10
2019-05-25T10:52:47.317Z,26.74
2019-05-25T10:53:47.302Z,26.22
2019-05-25T10:54:47.337Z,25.93
2019-05-25T10:55:47.198Z,25.99
2019-05-25T10:56:47.157Z,26.19
2019-05-25T10:57:47.141Z,26.31
2019-05-25T10:58:47.100Z,26.51
2019-05-25T10:59:53.016Z,26.36
2019-05-25T11:00:46.997Z,26.43
2019-05-25T11:01:46.958Z,26.36
2019-05-25T11:02:46.944Z,26.36
2019-05-25T11:03:46.898Z,26.36
2019-05-25T11:04:46.871Z,26.34
2019-05-25T11:05:46.810Z,26.60
2019-05-25T11:06:46.760Z,26.83
2019-05-25T11:07:46.733Z,26.99
2019-05-25T11:08:46.692Z,27.11
2019-05-25T11:09:46.688Z,27.22
2019-05-25T11:10:46.608Z,27.00
2019-05-25T11:11:46.611Z,26.59
2019-05-25T11:12:46.537Z,26.33
2019-05-25T11:13:46.511Z,26.23
2019-05-25T11:14:46.457Z,26.28
2019-05-25T11:15:46.449Z,26.44
2019-05-25T11:16:46.419Z,26.38
2019-05-25T11:17:46.362Z,26.45
2019-05-25T11:18:46.344Z,26.45
2019-05-25T11:19:46.279Z,26.40
2019-05-25T11:20:46.233Z,26.66
2019-05-25T11:21:46.222Z,26.63
2019-05-25T11:22:46.192Z,26.81
2019-05-25T11:23:46.150Z,26.88
2019-05-25T11:24:46.084Z,26.73
2019-05-25T11:25:46.027Z,26.71
2019-05-25T11:26:45.988Z,26.73
2019-05-25T11:27:45.941Z,26.71
2019-05-25T11:28:45.964Z,26.60
2019-05-25T11:29:45.882Z,26.66
2019-05-25T11:30:45.871Z,26.58
2019-05-25T11:31:54.196Z,26.58
2019-05-25T11:32:45.800Z,26.44
2019-05-25T11:33:45.749Z,26.43
2019-05-25T11:34:45.676Z,26.22
2019-05-25T11:35:45.652Z,26.22
2019-05-25T11:36:45.599Z,26.18
2019-05-25T11:37:45.549Z,26.31
2019-05-25T11:38:45.563Z,26.47
2019-05-25T11:39:45.481Z,26.59
2019-05-25T11:40:45.430Z,26.43
2019-05-25T11:41:45.402Z,26.60
2019-05-25T11:42:45.350Z,26.77
2019-05-25T11:43:45.363Z,27.11
2019-05-25T11:44:45.287Z,27.27
2019-05-25T11:45:45.543Z,27.37
2019-05-25T11:46:45.192Z,27.18
2019-05-25T11:47:45.154Z,26.77
2019-05-25T11:48:45.149Z,26.38
2019-05-25T11:49:45.076Z,26.03
2019-05-25T11:50:45.038Z,25.91
2019-05-25T11:51:45.029Z,25.80
2019-05-25T11:52:45.056Z,25.59
2019-05-25T11:53:44.922Z,25.38
2019-05-25T11:54:44.882Z,25.21
2019-05-25T11:55:44.849Z,25.14
2019-05-25T11:56:44.834Z,25.08
2019-05-25T11:57:44.795Z,24.96
2019-05-25T11:58:47.426Z,25.04
2019-05-25T11:59:44.685Z,25.13
2019-05-25T12:00:44.652Z,25.31
2019-05-25T12:01:44.605Z,25.62
2019-05-25T12:02:44.595Z,25.78
2019-05-25T12:03:44.529Z,26.02
2019-05-25T12:04:44.485Z,26.10
2019-05-25T12:05:44.446Z,26.19
2019-05-25T12:06:44.407Z,26.13
2019-05-25T12:07:45.067Z,26.10
2019-05-25T12:08:44.329Z,26.05
2019-05-25T12:09:44.287Z,26.10
2019-05-25T12:10:44.249Z,26.21
2019-05-25T12:11:44.241Z,26.31
2019-05-25T12:12:44.170Z,26.45
2019-05-25T12:13:44.168Z,26.60
2019-05-25T12:14:44.093Z,26.89
2019-05-25T12:15:44.060Z,27.05
2019-05-25T12:16:44.020Z,27.11
2019-05-25T12:17:44.006Z,27.27
2019-05-25T12:18:43.936Z,27.32
2019-05-25T12:19:43.897Z,27.32
2019-05-25T12:20:43.859Z,27.30
2019-05-25T12:21:43.849Z,27.05
2019-05-25T12:22:43.781Z,27.02
2019-05-25T12:23:43.740Z,27.18
2019-05-25T12:24:43.706Z,27.30
2019-05-25T12:25:43.687Z,27.48
2019-05-25T12:26:43.623Z,27.54
2019-05-25T12:27:43.599Z,27.64
2019-05-25T12:28:43.548Z,27.64
2019-05-25T12:29:43.543Z,27.83
2019-05-25T12:30:43.472Z,27.82
2019-05-25T12:31:43.430Z,27.89
2019-05-25T12:32:43.391Z,27.98
2019-05-25T12:33:43.352Z,27.95
2019-05-25T12:34:43.343Z,28.15
2019-05-25T12:35:45.298Z,28.17
2019-05-25T12:36:43.236Z,28.10
2019-05-25T12:37:43.230Z,27.89
2019-05-25T12:38:43.157Z,27.95
2019-05-25T12:39:43.133Z,27.93
2019-05-25T12:40:53.144Z,28.15
2019-05-25T12:41:43.070Z,28.26
2019-05-25T12:42:45.844Z,28.26
2019-05-25T12:43:42.993Z,28.38
2019-05-25T12:44:42.956Z,28.32
2019-05-25T12:45:42.919Z,28.20
2019-05-25T12:46:42.850Z,28.19
2019-05-25T12:47:42.811Z,28.00
2019-05-25T12:48:42.772Z,28.01
2019-05-25T12:49:50.524Z,28.11
2019-05-25T12:50:42.726Z,28.25
2019-05-25T12:51:42.687Z,28.11